Arlington, Illinois
Current Conditions -  °F | °C
As of 10:15 AM on Saturday 20 Dec 2014 (Local Time) from KVYS Reporting Station
Overcast Overcast  
Wind Chill: 25°   Ceiling: 5500
Heat Index: 31°   Visibility: 7mi
Dew Point: 26°   Wind: 6mph
Humidity: 82%   Direction: 140°SE
Pressure: 30.29"   Gusts: NA
Location:  41.47°N, 89.25°W
Report Text: KVYS 201615Z AUTO 14005KT 7SM OVC055 M01/M03 A3029 RMK AO2 T10081035
Loading
Personal Weather Stations






























Interactive Weather Map New forecast layout! Learn more

10-Day Weather Forecast

Advertisements
Track Severe Weather on mobile